sim
Sign-in with your pilot id or email,
or register
Callsign
Passwort

Schedule Details

Flight Number: OEO8865
Departure: Bristol Airport (EGGD) at 07:30
Arrival: Munich Airport (EDDM) at 09:30

Weather Information
Getting current METAR information for EGGD 220320Z AUTO 27006KT 9999 NCD 13/12 Q1013
Getting current METAR information for EDDM 220320Z 33001KT 2500 0500S R08L/0650N R08R/0450U BCFG FEW001 08/07 Q1015 BECMG 3000

Schedule Frequency

Route Map